createdAt,value
2016-05-10T00:00:19.299Z,0
2016-05-10T00:01:33.519Z,0
2016-05-10T00:02:19.194Z,0
2016-05-10T00:03:33.557Z,0
2016-05-10T00:04:19.232Z,0
2016-05-10T00:05:19.405Z,0
2016-05-10T00:06:19.440Z,0
2016-05-10T00:08:19.492Z,0
2016-05-10T00:09:19.198Z,0
2016-05-10T00:10:19.216Z,0
2016-05-10T00:11:19.547Z,0
2016-05-10T00:12:19.592Z,0
2016-05-10T00:13:33.839Z,0
2016-05-10T00:14:19.930Z,0
2016-05-10T00:15:33.974Z,0
2016-05-10T00:16:19.846Z,0
2016-05-10T00:17:34.075Z,0
2016-05-10T00:19:19.812Z,0
2016-05-10T00:20:19.846Z,0
2016-05-10T00:21:19.910Z,0
2016-05-10T00:22:34.265Z,0
2016-05-10T00:24:19.985Z,0
2016-05-10T00:25:19.992Z,0
2016-05-10T00:26:20.187Z,0
2016-05-10T00:27:20.053Z,0
2016-05-10T00:28:20.245Z,0
2016-05-10T00:29:34.125Z,0
2016-05-10T00:30:20.129Z,0
2016-05-10T00:32:34.528Z,0
2016-05-10T00:33:20.344Z,0
2016-05-10T00:34:20.363Z,0
2016-05-10T00:35:34.570Z,0
2016-05-10T00:36:20.432Z,0
2016-05-10T00:37:20.435Z,0
2016-05-10T00:39:34.676Z,0
2016-05-10T00:40:20.351Z,0
2016-05-10T00:41:20.526Z,0
2016-05-10T00:42:20.560Z,0
2016-05-10T00:43:20.422Z,0
2016-05-10T00:44:20.440Z,0
2016-05-10T00:45:34.819Z,0
2016-05-10T00:46:20.633Z,0
2016-05-10T00:47:20.527Z,0
2016-05-10T00:48:34.874Z,0
2016-05-10T00:49:20.704Z,0
2016-05-10T00:50:34.910Z,0
2016-05-10T00:51:20.615Z,0
2016-05-10T00:53:34.980Z,0
2016-05-10T00:54:20.655Z,0
2016-05-10T00:55:20.830Z,0
2016-05-10T00:56:35.035Z,0
2016-05-10T00:57:20.882Z,0
2016-05-10T00:58:20.900Z,0
2016-05-10T00:59:21.012Z,0
2016-05-10T01:00:35.124Z,0
2016-05-10T01:01:20.814Z,0
2016-05-10T01:02:20.989Z,0
2016-05-10T01:03:21.023Z,0
2016-05-10T01:04:21.026Z,0
2016-05-10T01:05:20.903Z,0
2016-05-10T01:06:21.078Z,0
2016-05-10T01:07:21.112Z,0
2016-05-10T01:09:21.133Z,0
2016-05-10T01:10:21.167Z,0
2016-05-10T01:11:21.200Z,0
2016-05-10T01:12:35.406Z,0
2016-05-10T01:13:21.222Z,0
2016-05-10T01:14:21.631Z,0
2016-05-10T01:15:21.118Z,0
2016-05-10T01:17:21.311Z,0
2016-05-10T01:18:21.344Z,0
2016-05-10T01:19:21.363Z,0
2016-05-10T01:20:21.225Z,0
2016-05-10T01:21:21.399Z,0
2016-05-10T01:22:21.433Z,0
2016-05-10T01:23:35.624Z,0
2016-05-10T01:24:35.502Z,0
2016-05-10T01:25:21.176Z,0
2016-05-10T01:26:21.523Z,0
2016-05-10T01:27:21.540Z,0
2016-05-10T01:28:21.559Z,0
2016-05-10T01:29:22.593Z,0
2016-05-10T01:30:21.439Z,0
2016-05-10T01:31:21.457Z,0
2016-05-10T01:32:35.820Z,0
2016-05-10T01:33:21.667Z,0
2016-05-10T01:34:21.700Z,0
2016-05-10T01:35:21.718Z,0
2016-05-10T01:36:21.721Z,0
2016-05-10T01:37:35.927Z,0
2016-05-10T01:38:21.617Z,0
2016-05-10T01:39:21.636Z,0
2016-05-10T01:40:21.826Z,0
2016-05-10T01:41:21.844Z,0
2016-05-10T01:42:21.706Z,0
2016-05-10T01:43:36.052Z,0
2016-05-10T01:44:21.961Z,0
2016-05-10T01:45:21.917Z,0
2016-05-10T01:46:21.936Z,0
2016-05-10T01:47:21.970Z,0
2016-05-10T01:48:50.363Z,0
2016-05-10T01:49:21.849Z,0
2016-05-10T01:50:21.868Z,0
2016-05-10T01:51:22.058Z,0
2016-05-10T01:52:22.077Z,0
2016-05-10T01:53:21.783Z,0
2016-05-10T01:55:22.132Z,0
2016-05-10T01:56:22.165Z,0
2016-05-10T01:57:22.185Z,0
2016-05-10T01:58:22.062Z,0
2016-05-10T01:59:22.658Z,0
2016-05-10T02:00:22.082Z,0
2016-05-10T02:01:22.257Z,0
2016-05-10T02:02:22.290Z,0
2016-05-10T02:03:22.356Z,0
2016-05-10T02:04:36.515Z,0
2016-05-10T02:05:22.346Z,0
2016-05-10T02:06:22.381Z,0
2016-05-10T02:07:22.398Z,0
2016-05-10T02:08:22.260Z,0
2016-05-10T02:10:36.641Z,0
2016-05-10T02:11:22.487Z,0
2016-05-10T02:12:22.350Z,0
2016-05-10T02:13:22.367Z,0
2016-05-10T02:14:22.402Z,0
2016-05-10T02:15:22.404Z,0
2016-05-10T02:16:22.422Z,0
2016-05-10T02:17:22.628Z,0
2016-05-10T02:18:22.631Z,0
2016-05-10T02:19:22.493Z,0
2016-05-10T02:20:36.871Z,0
2016-05-10T02:21:36.874Z,0
2016-05-10T02:22:22.719Z,0
2016-05-10T02:23:22.738Z,0
2016-05-10T02:24:36.944Z,0
2016-05-10T02:25:36.963Z,0
2016-05-10T02:26:22.809Z,0
2016-05-10T02:27:22.671Z,0
2016-05-10T02:28:37.033Z,0
2016-05-10T02:29:36.895Z,0
2016-05-10T02:30:36.913Z,0
2016-05-10T02:31:36.931Z,0
2016-05-10T02:32:22.934Z,0
2016-05-10T02:33:22.796Z,0
2016-05-10T02:34:22.971Z,0
2016-05-10T02:35:37.177Z,4
2016-05-10T02:36:23.023Z,4
2016-05-10T02:37:23.041Z,0
2016-05-10T02:38:23.059Z,0
2016-05-10T02:39:23.094Z,4
2016-05-10T02:40:23.097Z,4
2016-05-10T02:41:23.115Z,0
2016-05-10T02:42:23.148Z,4
2016-05-10T02:43:23.167Z,4
2016-05-10T02:44:37.216Z,4
2016-05-10T02:45:37.392Z,8
2016-05-10T02:46:23.222Z,8
2016-05-10T02:47:23.255Z,8
2016-05-10T02:48:23.119Z,8
2016-05-10T02:49:22.980Z,8
2016-05-10T02:50:23.310Z,12
2016-05-10T02:51:23.345Z,12
2016-05-10T02:52:23.347Z,12
2016-05-10T02:53:23.225Z,20
2016-05-10T02:54:23.400Z,20
2016-05-10T02:55:23.418Z,24
2016-05-10T02:56:23.436Z,24
2016-05-10T02:58:23.332Z,36
2016-05-10T02:59:37.538Z,40
2016-05-10T03:00:23.212Z,44
2016-05-10T03:01:23.404Z,48
2016-05-10T03:02:23.562Z,52
2016-05-10T03:03:23.596Z,60
2016-05-10T03:04:23.614Z,68
2016-05-10T03:05:23.632Z,76
2016-05-10T03:06:23.510Z,84
2016-05-10T03:07:37.856Z,96
2016-05-10T03:08:23.547Z,104
2016-05-10T03:09:23.721Z,116
2016-05-10T03:10:37.927Z,132
2016-05-10T03:11:23.758Z,140
2016-05-10T03:12:23.792Z,156
2016-05-10T03:13:23.795Z,168
2016-05-10T03:14:24.078Z,188
2016-05-10T03:15:23.847Z,204
2016-05-10T03:16:23.864Z,220
2016-05-10T03:17:23.728Z,240
2016-05-10T03:18:23.933Z,260
2016-05-10T03:19:23.779Z,284
2016-05-10T03:20:23.955Z,304
2016-05-10T03:21:23.972Z,324
2016-05-10T03:22:24.005Z,348
2016-05-10T03:23:38.040Z,384
2016-05-10T03:24:23.886Z,400
2016-05-10T03:25:24.061Z,432
2016-05-10T03:26:24.080Z,456
2016-05-10T03:27:24.098Z,488
2016-05-10T03:28:38.304Z,524
2016-05-10T03:29:24.150Z,548
2016-05-10T03:30:24.168Z,580
2016-05-10T03:31:38.374Z,624
2016-05-10T03:32:38.377Z,656
2016-05-10T03:33:38.410Z,696
2016-05-10T03:34:24.242Z,724
2016-05-10T03:36:24.278Z,804
2016-05-10T03:37:24.313Z,844
2016-05-10T03:38:24.330Z,884
2016-05-10T03:39:38.520Z,936
2016-05-10T03:40:24.367Z,968
2016-05-10T03:41:24.401Z,1012
2016-05-10T03:42:24.420Z,1056
2016-05-10T03:43:24.125Z,1100
2016-05-10T03:44:24.300Z,1148
2016-05-10T03:45:24.490Z,1192
2016-05-10T03:46:24.492Z,1240
2016-05-10T03:47:24.511Z,1288
2016-05-10T03:51:24.599Z,1476
2016-05-10T03:52:24.633Z,1524
2016-05-10T03:53:24.636Z,1572
2016-05-10T03:55:38.861Z,1724
2016-05-10T03:56:24.567Z,1772
2016-05-10T03:58:24.587Z,1808
2016-05-10T03:59:24.684Z,1856
2016-05-10T04:00:24.796Z,1904
2016-05-10T04:01:24.815Z,1948
2016-05-10T04:03:24.554Z,2040
2016-05-10T04:04:24.884Z,2084
2016-05-10T04:05:39.090Z,2140
2016-05-10T04:07:24.940Z,2236
2016-05-10T04:08:24.802Z,2312
2016-05-10T04:09:24.992Z,2324
2016-05-10T04:10:39.182Z,2400
2016-05-10T04:11:25.029Z,2424
2016-05-10T04:12:24.750Z,2432
2016-05-10T04:13:25.065Z,2480
2016-05-10T04:14:25.271Z,2560
2016-05-10T04:15:25.117Z,2616
2016-05-10T04:16:25.167Z,2636
2016-05-10T04:17:39.186Z,2664
2016-05-10T04:18:25.031Z,2696
2016-05-10T04:19:25.081Z,2728
2016-05-10T04:20:39.427Z,2760
2016-05-10T04:21:25.258Z,2800
2016-05-10T04:22:25.121Z,2856
2016-05-10T04:23:25.295Z,2888
2016-05-10T04:24:25.314Z,2912
2016-05-10T04:25:25.333Z,2948
2016-05-10T04:26:25.051Z,2988
2016-05-10T04:27:25.384Z,3020
2016-05-10T04:28:25.402Z,3068
2016-05-10T04:29:25.577Z,3104
2016-05-10T04:30:25.439Z,3204
2016-05-10T04:32:25.491Z,3252
2016-05-10T04:33:25.351Z,3264
2016-05-10T04:35:25.546Z,3372
2016-05-10T04:36:25.580Z,3388
2016-05-10T04:37:39.771Z,3416
2016-05-10T04:38:25.615Z,3464
2016-05-10T04:39:25.632Z,3560
2016-05-10T04:40:25.510Z,3640
2016-05-10T04:41:25.684Z,3772
2016-05-10T04:42:39.893Z,3684
2016-05-10T04:43:25.565Z,3668
2016-05-10T04:44:25.818Z,3704
2016-05-10T04:45:25.790Z,3968
2016-05-10T04:46:25.479Z,4812
2016-05-10T04:47:39.984Z,8544
2016-05-10T04:48:25.828Z,12760
2016-05-10T04:49:25.862Z,16032
2016-05-10T04:50:25.725Z,16064
2016-05-10T04:51:25.900Z,16032
2016-05-10T04:52:40.107Z,16096
2016-05-10T04:53:40.125Z,16160
2016-05-10T04:54:25.969Z,16160
2016-05-10T04:55:25.832Z,16288
2016-05-10T04:57:26.040Z,16416
2016-05-10T04:58:40.249Z,16736
2016-05-10T04:59:26.486Z,16896
2016-05-10T05:00:26.111Z,17312
2016-05-10T05:01:25.989Z,17792
2016-05-10T05:02:26.163Z,18048
2016-05-10T05:03:26.182Z,18240
2016-05-10T05:04:40.234Z,18816
2016-05-10T05:05:26.234Z,19104
2016-05-10T05:06:26.112Z,19232
2016-05-10T05:07:26.285Z,19392
2016-05-10T05:08:26.320Z,19936
2016-05-10T05:09:26.182Z,20224
2016-05-10T05:10:26.372Z,20352
2016-05-10T05:11:26.391Z,20640
2016-05-10T05:12:26.409Z,20672
2016-05-10T05:13:26.442Z,20832
2016-05-10T05:14:40.886Z,21152
2016-05-10T05:15:26.495Z,21152
2016-05-10T05:16:26.528Z,21216
2016-05-10T05:17:26.563Z,21376
2016-05-10T05:18:26.581Z,21120
2016-05-10T05:19:26.615Z,21600
2016-05-10T05:20:26.492Z,22016
2016-05-10T05:21:26.667Z,22240
2016-05-10T05:22:40.875Z,22336
2016-05-10T05:23:26.563Z,22368
2016-05-10T05:24:26.738Z,22272
2016-05-10T05:26:26.650Z,22528
2016-05-10T05:27:26.855Z,22592
2016-05-10T05:28:26.858Z,23136
2016-05-10T05:29:27.344Z,23264
2016-05-10T05:30:41.116Z,23424
2016-05-10T05:31:40.977Z,23456
2016-05-10T05:32:26.837Z,23520
2016-05-10T05:33:27.013Z,23488
2016-05-10T05:34:26.891Z,23808
2016-05-10T05:35:26.908Z,24160
2016-05-10T05:36:41.288Z,24544
2016-05-10T05:37:27.132Z,24352
2016-05-10T05:38:27.166Z,24416
2016-05-10T05:39:41.374Z,24608
2016-05-10T05:41:27.096Z,24448
2016-05-10T05:42:27.130Z,24640
2016-05-10T05:43:27.148Z,24672
2016-05-10T05:44:41.888Z,24960
2016-05-10T05:45:41.562Z,24896
2016-05-10T05:46:27.406Z,24832
2016-05-10T05:47:27.472Z,24768
2016-05-10T05:48:27.318Z,24864
2016-05-10T05:49:27.383Z,24928
2016-05-10T05:50:27.215Z,24896
2016-05-10T05:51:27.561Z,24992
2016-05-10T05:52:27.594Z,25184
2016-05-10T05:53:41.803Z,25312
2016-05-10T05:54:27.647Z,25280
2016-05-10T05:55:27.680Z,25632
2016-05-10T05:56:27.714Z,25472
2016-05-10T05:57:27.749Z,25024
2016-05-10T05:58:27.610Z,25216
2016-05-10T05:59:27.879Z,25408
2016-05-10T06:01:27.713Z,25536
2016-05-10T06:02:27.887Z,25760
2016-05-10T06:03:27.624Z,25984
2016-05-10T06:04:27.814Z,26016
2016-05-10T06:05:27.989Z,26240
2016-05-10T06:06:27.866Z,26080
2016-05-10T06:07:28.057Z,25632
2016-05-10T06:08:28.107Z,25856
2016-05-10T06:09:42.329Z,26016
2016-05-10T06:10:28.158Z,25792
2016-05-10T06:11:42.382Z,26016
2016-05-10T06:12:28.242Z,26176
2016-05-10T06:13:28.088Z,26048
2016-05-10T06:14:28.326Z,25984
2016-05-10T06:15:28.344Z,25824
2016-05-10T06:17:42.570Z,26368
2016-05-10T06:18:28.414Z,26464
2016-05-10T06:19:28.448Z,26464
2016-05-10T06:20:28.498Z,26272
2016-05-10T06:21:28.501Z,26336
2016-05-10T06:22:28.551Z,26336
2016-05-10T06:23:28.584Z,26560
2016-05-10T06:24:28.618Z,26816
2016-05-10T06:25:28.636Z,26592
2016-05-10T06:26:42.860Z,26656
2016-05-10T06:27:28.750Z,26560
2016-05-10T06:28:28.739Z,26656
2016-05-10T06:29:42.666Z,26496
2016-05-10T06:30:28.666Z,26080
2016-05-10T06:31:28.683Z,26112
2016-05-10T06:32:28.719Z,26272
2016-05-10T06:33:43.098Z,26304
2016-05-10T06:34:28.957Z,25952
2016-05-10T06:35:28.819Z,26336
2016-05-10T06:36:29.010Z,27008
2016-05-10T06:37:29.059Z,27232
2016-05-10T06:39:28.955Z,27360
2016-05-10T06:40:29.160Z,27392
2016-05-10T06:41:29.210Z,27456
2016-05-10T06:42:43.404Z,26976
2016-05-10T06:43:29.107Z,26976
2016-05-10T06:44:30.297Z,27456
2016-05-10T06:45:29.174Z,27424
2016-05-10T06:46:29.349Z,27328
2016-05-10T06:47:29.399Z,27616
2016-05-10T06:48:29.276Z,27808
2016-05-10T06:49:43.642Z,27648
2016-05-10T06:50:43.519Z,27712
2016-05-10T06:51:43.725Z,28064
2016-05-10T06:52:29.584Z,28384
2016-05-10T06:53:29.618Z,28352
2016-05-10T06:54:29.637Z,28128
2016-05-10T06:55:43.860Z,27904
2016-05-10T06:56:29.703Z,28320
2016-05-10T06:57:29.753Z,28608
2016-05-10T06:59:30.400Z,28704
2016-05-10T07:00:44.030Z,28704
2016-05-10T07:01:29.717Z,28736
2016-05-10T07:02:29.907Z,28992
2016-05-10T07:03:29.786Z,29312
2016-05-10T07:04:29.975Z,28832
2016-05-10T07:05:44.043Z,28640
2016-05-10T07:06:29.887Z,28736
2016-05-10T07:07:29.937Z,28544
2016-05-10T07:08:30.127Z,27968
2016-05-10T07:09:30.145Z,27968
2016-05-10T07:11:30.073Z,27616
2016-05-10T07:12:30.278Z,28032
2016-05-10T07:13:30.312Z,27872
2016-05-10T07:14:30.331Z,28096
2016-05-10T07:16:30.243Z,28032
2016-05-10T07:17:30.432Z,28928
2016-05-10T07:18:30.482Z,29248
2016-05-10T07:19:30.500Z,28736
2016-05-10T07:20:44.725Z,28928
2016-05-10T07:21:30.428Z,28608
2016-05-10T07:22:44.808Z,28320
2016-05-10T07:23:31.339Z,28256
2016-05-10T07:24:30.686Z,28384
2016-05-10T07:25:44.910Z,29088
2016-05-10T07:26:44.928Z,29408
2016-05-10T07:27:44.978Z,29120
2016-05-10T07:28:30.665Z,29184
2016-05-10T07:29:30.792Z,29056
2016-05-10T07:30:30.905Z,28640
2016-05-10T07:31:30.766Z,28416
2016-05-10T07:32:30.957Z,29056
2016-05-10T07:33:30.991Z,29600
2016-05-10T07:34:31.041Z,29152
2016-05-10T07:35:45.093Z,28864
2016-05-10T07:36:31.093Z,28960
2016-05-10T07:37:31.143Z,28768
2016-05-10T07:38:31.176Z,28896
2016-05-10T07:40:31.244Z,28960
2016-05-10T07:41:31.293Z,28192
2016-05-10T07:42:31.312Z,27968
2016-05-10T07:43:45.537Z,28640
2016-05-10T07:44:31.443Z,28352
2016-05-10T07:45:31.415Z,28032
2016-05-10T07:46:31.292Z,28032
2016-05-10T07:47:31.529Z,28032
2016-05-10T07:48:31.609Z,28288
2016-05-10T07:49:31.550Z,28704
2016-05-10T07:50:31.678Z,28704
2016-05-10T07:51:31.634Z,29312
2016-05-10T07:52:45.701Z,29408
2016-05-10T07:53:31.701Z,28736
2016-05-10T07:54:31.579Z,28352
2016-05-10T07:55:31.770Z,28160
2016-05-10T07:56:31.803Z,28288
2016-05-10T07:57:31.837Z,28224
2016-05-10T07:58:31.730Z,27904
2016-05-10T07:59:31.811Z,27616
2016-05-10T08:00:46.144Z,27680
2016-05-10T08:01:31.988Z,28064
2016-05-10T08:05:32.139Z,27360
2016-05-10T08:06:32.174Z,27584
2016-05-10T08:07:32.192Z,27616
2016-05-10T08:08:46.416Z,27584
2016-05-10T08:09:32.275Z,82496
2016-05-10T08:10:46.484Z,84320
2016-05-10T08:11:32.343Z,85408
2016-05-10T08:12:32.377Z,83456
2016-05-10T08:14:32.492Z,77024
2016-05-10T08:15:32.323Z,81504
2016-05-10T08:16:32.357Z,83232
2016-05-10T08:17:46.753Z,83104
2016-05-10T08:18:32.440Z,80992
2016-05-10T08:19:32.631Z,80736
2016-05-10T08:20:32.649Z,84064
2016-05-10T08:21:32.526Z,80064
2016-05-10T08:22:32.560Z,79584
2016-05-10T08:23:32.595Z,76896
2016-05-10T08:24:46.975Z,78080
2016-05-10T08:25:32.678Z,80832
2016-05-10T08:26:47.058Z,82432
2016-05-10T08:28:32.795Z,87936
2016-05-10T08:29:33.751Z,81120
2016-05-10T08:30:33.628Z,83456
2016-05-10T08:31:47.087Z,82912
2016-05-10T08:32:33.072Z,83488
2016-05-10T08:33:47.140Z,86176
2016-05-10T08:34:33.187Z,86848
2016-05-10T08:35:33.017Z,88192
2016-05-10T08:36:33.207Z,85280
2016-05-10T08:37:33.257Z,82880
2016-05-10T08:38:33.291Z,88000
2016-05-10T08:39:33.152Z,86048
2016-05-10T08:40:47.533Z,83040
2016-05-10T08:41:47.567Z,87552
2016-05-10T08:43:33.445Z,86528
2016-05-10T08:44:35.260Z,84992
2016-05-10T08:45:33.372Z,85632
2016-05-10T08:46:47.752Z,90560
2016-05-10T08:47:33.581Z,91200
2016-05-10T08:48:33.630Z,89760
2016-05-10T08:49:33.665Z,88256
2016-05-10T08:50:33.698Z,90624
2016-05-10T08:51:33.732Z,88800
2016-05-10T08:52:33.766Z,91712
2016-05-10T08:53:33.816Z,97728
2016-05-10T08:54:33.678Z,96064
2016-05-10T08:55:47.902Z,96576
2016-05-10T08:56:33.902Z,94528
2016-05-10T08:57:33.811Z,93856
2016-05-10T08:58:33.673Z,94080
2016-05-10T08:59:33.972Z,95136
2016-05-10T09:00:34.022Z,93984
2016-05-10T09:01:34.072Z,100256
2016-05-10T09:02:48.295Z,96096
2016-05-10T09:04:34.188Z,93344
2016-05-10T09:05:34.066Z,93376
2016-05-10T09:06:34.258Z,92768
2016-05-10T09:07:34.291Z,90848
2016-05-10T09:08:34.184Z,94528
2016-05-10T09:09:34.359Z,92512
2016-05-10T09:10:34.236Z,96160
2016-05-10T09:11:34.427Z,99584
2016-05-10T09:12:45.916Z,97088
2016-05-10T09:13:42.044Z,97344
2016-05-10T09:14:35.794Z,97952
2016-05-10T09:15:36.328Z,93344
2016-05-10T09:16:34.455Z,96000
2016-05-10T09:17:34.646Z,99776
2016-05-10T09:18:34.524Z,97248
2016-05-10T09:19:34.735Z,99328
2016-05-10T09:20:34.670Z,99008
2016-05-10T09:21:34.761Z,100736
2016-05-10T09:22:34.977Z,101056
2016-05-10T09:24:34.963Z,97216
2016-05-10T09:25:35.169Z,93344
2016-05-10T09:26:35.202Z,104640
2016-05-10T09:27:49.300Z,103424
2016-05-10T09:28:35.003Z,97664
2016-05-10T09:29:35.199Z,90656
2016-05-10T09:30:35.224Z,93408
2016-05-10T09:31:35.418Z,102336
2016-05-10T09:32:35.459Z,102016
2016-05-10T09:33:35.513Z,101888
2016-05-10T09:34:35.550Z,105184
2016-05-10T09:35:35.429Z,108608
2016-05-10T09:36:35.605Z,109952
2016-05-10T09:37:35.500Z,106944
2016-05-10T09:38:35.693Z,99328
2016-05-10T09:39:49.919Z,106656
2016-05-10T09:40:35.762Z,109152
2016-05-10T09:41:35.812Z,105600
2016-05-10T09:42:35.691Z,105088
2016-05-10T09:43:50.057Z,105536
2016-05-10T09:44:35.932Z,107616
2016-05-10T09:45:35.795Z,112288
2016-05-10T09:46:35.828Z,111392
2016-05-10T09:47:36.020Z,109920
2016-05-10T09:48:50.072Z,108032
2016-05-10T09:49:36.087Z,104544
2016-05-10T09:50:36.121Z,104128
2016-05-10T09:51:50.345Z,113856
2016-05-10T09:52:36.033Z,109248
2016-05-10T09:53:36.067Z,108032
2016-05-10T09:54:36.273Z,110432
2016-05-10T09:55:36.291Z,108896
2016-05-10T09:56:36.169Z,109184
2016-05-10T09:58:36.252Z,111456
2016-05-10T09:59:50.648Z,107584
2016-05-10T10:00:36.320Z,105600
2016-05-10T10:01:36.526Z,111520
2016-05-10T10:02:36.388Z,113632
2016-05-10T10:03:50.769Z,107616
2016-05-10T10:04:36.628Z,107552
2016-05-10T10:05:36.661Z,109984
2016-05-10T10:06:36.555Z,107424
2016-05-10T10:07:36.574Z,109632
2016-05-10T10:08:36.451Z,107200
2016-05-10T10:09:36.783Z,105120
2016-05-10T10:10:36.832Z,107200
2016-05-10T10:11:36.882Z,108800
2016-05-10T10:12:36.760Z,106048
2016-05-10T10:13:36.793Z,104192
2016-05-10T10:14:36.686Z,100864
2016-05-10T10:15:51.191Z,96000
2016-05-10T10:16:37.035Z,101344
2016-05-10T10:17:37.085Z,100192
2016-05-10T10:18:36.837Z,100480
2016-05-10T10:19:36.996Z,105280
2016-05-10T10:20:37.186Z,104288
2016-05-10T10:21:37.237Z,104096
2016-05-10T10:23:37.320Z,107008
2016-05-10T10:24:37.337Z,106528
2016-05-10T10:25:51.562Z,101728
2016-05-10T10:26:37.406Z,103840
2016-05-10T10:27:37.456Z,105088
2016-05-10T10:28:37.162Z,106752
2016-05-10T10:30:51.575Z,106976
2016-05-10T10:31:37.591Z,105792
2016-05-10T10:32:37.625Z,105920
2016-05-10T10:33:37.659Z,108832
2016-05-10T10:34:37.536Z,102944
2016-05-10T10:35:37.727Z,86816
2016-05-10T10:36:37.777Z,88576
2016-05-10T10:37:37.654Z,98048
2016-05-10T10:38:37.860Z,101696
2016-05-10T10:39:52.068Z,103200
2016-05-10T10:41:37.947Z,102464
2016-05-10T10:42:37.996Z,104416
2016-05-10T10:43:37.718Z,107488
2016-05-10T10:44:38.080Z,108480
2016-05-10T10:45:38.098Z,104736
2016-05-10T10:46:37.976Z,107712
2016-05-10T10:47:38.010Z,110464
2016-05-10T10:48:38.199Z,108512
2016-05-10T10:49:38.076Z,104768
2016-05-10T10:50:38.268Z,107136
2016-05-10T10:51:38.318Z,107072
2016-05-10T10:52:38.351Z,108512
2016-05-10T10:53:52.575Z,103840
2016-05-10T10:54:38.106Z,99904
2016-05-10T10:55:38.453Z,103552
2016-05-10T10:56:38.486Z,105280
2016-05-10T10:57:38.536Z,103488
2016-05-10T10:59:38.932Z,98048
2016-05-10T11:00:38.639Z,96608
2016-05-10T11:01:52.862Z,92736
2016-05-10T11:02:52.897Z,90336
2016-05-10T11:03:38.615Z,94400
2016-05-10T11:04:38.790Z,94752
2016-05-10T11:05:38.823Z,98688
2016-05-10T11:06:53.047Z,95168
2016-05-10T11:07:38.735Z,93760
2016-05-10T11:08:38.925Z,93984
2016-05-10T11:09:38.958Z,91872
2016-05-10T11:10:53.183Z,95808
2016-05-10T11:11:39.089Z,100608
2016-05-10T11:13:39.110Z,91072
2016-05-10T11:14:39.441Z,90912
2016-05-10T11:15:38.866Z,104480
2016-05-10T11:16:53.246Z,104512
2016-05-10T11:17:39.090Z,102432
2016-05-10T11:18:53.471Z,106016
2016-05-10T11:20:39.363Z,107776
2016-05-10T11:21:39.241Z,107392
2016-05-10T11:22:39.432Z,107424
2016-05-10T11:23:53.499Z,108864
2016-05-10T11:24:39.359Z,107296
2016-05-10T11:25:53.584Z,108608
2016-05-10T11:26:39.568Z,104992
2016-05-10T11:27:39.648Z,101984
2016-05-10T11:28:39.651Z,98752
2016-05-10T11:29:53.875Z,103584
2016-05-10T11:31:39.753Z,107904
2016-05-10T11:32:39.630Z,104832
2016-05-10T11:33:39.836Z,104800
2016-05-10T11:35:39.747Z,103392
2016-05-10T11:36:39.938Z,104512
2016-05-10T11:37:39.972Z,101792
2016-05-10T11:38:40.005Z,96256
2016-05-10T11:39:39.883Z,100512
2016-05-10T11:40:40.074Z,100608
2016-05-10T11:41:54.314Z,100576
2016-05-10T11:42:40.017Z,98496
2016-05-10T11:43:40.035Z,101056
2016-05-10T11:44:41.287Z,99968
2016-05-10T11:45:40.260Z,93600
2016-05-10T11:46:40.138Z,101440
2016-05-10T11:47:40.155Z,105600
2016-05-10T11:48:40.361Z,102688
2016-05-10T11:49:40.395Z,103104
2016-05-10T11:50:54.463Z,100896
2016-05-10T11:51:40.463Z,100128
2016-05-10T11:52:40.512Z,101632
2016-05-10T11:53:40.531Z,74368
2016-05-10T11:54:40.409Z,30976
2016-05-10T11:55:40.598Z,13428
2016-05-10T11:57:54.856Z,12424
2016-05-10T11:58:40.684Z,11756
2016-05-10T11:59:40.750Z,11220
2016-05-10T12:00:40.768Z,10688
2016-05-10T12:01:40.802Z,10204
2016-05-10T12:02:55.010Z,9812
2016-05-10T12:03:40.869Z,9740
2016-05-10T12:04:40.903Z,9656
2016-05-10T12:05:54.800Z,9388
2016-05-10T12:06:40.956Z,9404
2016-05-10T12:08:55.230Z,10156
2016-05-10T12:09:40.902Z,10972
2016-05-10T12:10:41.092Z,11992
2016-05-10T12:11:41.017Z,11584
2016-05-10T12:12:41.175Z,10948
2016-05-10T12:13:41.038Z,11484
2016-05-10T12:14:41.494Z,10328
2016-05-10T12:15:55.436Z,10332
2016-05-10T12:16:41.139Z,11244
2016-05-10T12:17:41.330Z,12160
2016-05-10T12:18:41.348Z,13140
2016-05-10T12:19:41.397Z,14336
2016-05-10T12:20:41.416Z,13520
2016-05-10T12:21:55.499Z,12688
2016-05-10T12:22:41.499Z,10572
2016-05-10T12:24:20.317Z,9740
2016-05-10T12:24:41.223Z,10088
2016-05-10T12:25:41.571Z,10664
2016-05-10T12:26:41.604Z,11668
2016-05-10T12:27:41.481Z,11228
2016-05-10T12:28:41.657Z,9396
2016-05-10T12:29:41.737Z,7524
2016-05-10T12:30:41.724Z,8208
2016-05-10T12:31:41.774Z,8268
2016-05-10T12:32:41.775Z,8332
2016-05-10T12:33:41.810Z,8504
2016-05-10T12:34:41.845Z,9200
2016-05-10T12:35:41.862Z,10296
2016-05-10T12:36:41.740Z,11844
2016-05-10T12:37:56.105Z,13040
2016-05-10T12:38:41.839Z,12688
2016-05-10T12:39:41.983Z,11884
2016-05-10T12:40:42.016Z,10512
2016-05-10T12:41:42.050Z,11312
2016-05-10T12:42:56.244Z,11040
2016-05-10T12:43:56.277Z,10620
2016-05-10T12:44:41.964Z,9216
2016-05-10T12:45:41.842Z,8424
2016-05-10T12:47:56.272Z,8352
2016-05-10T12:48:42.241Z,8240
2016-05-10T12:49:42.103Z,8024
2016-05-10T12:50:42.293Z,7948
2016-05-10T12:52:42.190Z,7976
2016-05-10T12:53:56.554Z,7944
2016-05-10T12:54:56.587Z,8044
2016-05-10T12:55:42.275Z,8272
2016-05-10T12:56:42.482Z,8548
2016-05-10T12:57:42.328Z,8388
2016-05-10T12:58:56.708Z,8216
2016-05-10T12:59:42.426Z,8068
2016-05-10T13:00:42.304Z,8124
2016-05-10T13:01:42.448Z,7684
2016-05-10T13:02:56.813Z,7348
2016-05-10T13:04:42.534Z,7244
2016-05-10T13:05:42.256Z,7608
2016-05-10T13:06:42.759Z,7636
2016-05-10T13:07:42.776Z,7524
2016-05-10T13:08:42.795Z,7408
2016-05-10T13:09:57.003Z,7400
2016-05-10T13:10:42.847Z,6768
2016-05-10T13:11:42.881Z,7556
2016-05-10T13:12:42.914Z,7576
2016-05-10T13:13:57.124Z,7252
2016-05-10T13:14:43.155Z,7240
2016-05-10T13:15:43.001Z,7080
2016-05-10T13:16:43.019Z,7012
2016-05-10T13:17:43.053Z,6936
2016-05-10T13:18:43.072Z,6980
2016-05-10T13:19:43.105Z,6936
2016-05-10T13:20:42.983Z,6964
2016-05-10T13:21:43.174Z,7012
2016-05-10T13:22:43.036Z,7072
2016-05-10T13:23:43.507Z,6972
2016-05-10T13:24:43.243Z,7016
2016-05-10T13:25:57.452Z,7144
2016-05-10T13:26:43.140Z,6972
2016-05-10T13:27:43.315Z,6936
2016-05-10T13:28:43.192Z,6920
2016-05-10T13:29:57.667Z,6964
2016-05-10T13:30:43.245Z,7156
2016-05-10T13:31:57.609Z,7136
2016-05-10T13:33:57.693Z,6920
2016-05-10T13:34:43.506Z,6944
2016-05-10T13:35:43.430Z,6856
2016-05-10T13:36:43.573Z,6648
2016-05-10T13:37:43.451Z,6644
2016-05-10T13:38:43.626Z,6560
2016-05-10T13:39:43.644Z,6680
2016-05-10T13:40:57.867Z,6744
2016-05-10T13:41:43.711Z,6760
2016-05-10T13:42:43.574Z,6712
2016-05-10T13:44:08.016Z,6776
2016-05-10T13:44:43.813Z,6824
2016-05-10T13:45:43.833Z,7048
2016-05-10T13:46:43.835Z,7144
2016-05-10T13:48:43.746Z,6520
2016-05-10T13:49:43.780Z,6252
2016-05-10T13:50:43.971Z,6308
2016-05-10T13:51:58.007Z,6368
2016-05-10T13:52:44.007Z,6380
2016-05-10T13:53:44.072Z,6388
2016-05-10T13:54:44.090Z,6368
2016-05-10T13:55:44.093Z,6340
2016-05-10T13:56:44.112Z,6236
2016-05-10T13:57:44.146Z,6212
2016-05-10T13:58:44.023Z,6168
2016-05-10T13:59:44.213Z,6232
2016-05-10T14:00:44.231Z,6256
2016-05-10T14:01:44.251Z,6296
2016-05-10T14:02:58.302Z,6220
2016-05-10T14:03:44.302Z,6164
2016-05-10T14:04:44.337Z,6176
2016-05-10T14:05:44.386Z,6212
2016-05-10T14:06:58.579Z,6396
2016-05-10T14:07:58.598Z,6616
2016-05-10T14:09:58.509Z,6644
2016-05-10T14:10:44.509Z,6468
2016-05-10T14:11:44.528Z,6036
2016-05-10T14:12:58.736Z,6064
2016-05-10T14:13:44.579Z,6124
2016-05-10T14:14:44.473Z,6116